Lenox, MA (01240)

6:22 PM EDT on October 25, 2014 (GMT -0400)
KMARICHM2 | Change Station
CLOSE
Current Station
Personal Weather Station
Location: Richmond, MA
Elevation: 1073 ft
Nearby Weather Stations

Elev 1073 ft 42.36 °N, 73.37 °W | Updated 25 seconds ago

Overcast
Overcast
52.7 °F
Feels Like 52.7 °F
N
0.0
Wind Variable Wind from SW
Gusts 0.0 mph

Today
High -- | Low -- °F
--% Chance of Precip.
Yesterday
High -- | Low -- °F
Precip. -- in
7:17 AM 5:55 PM
Waxing Crescent, 4% visible
Pressure 29.57 in
Visibility 10.0 miles
Clouds Few 7500 ft
Overcast 9500 ft
Dew Point 38 °F
Humidity 58%
Rainfall 0.00 in
Snow Depth Not available.
UV 0 out of 12
Pollen .70 out of 12
Air Quality Not available.
Flu Activity Sporadic
METAR KPSF 252154Z AUTO 19003KT 10SM FEW075 OVC095 13/06 A2959 RMK AO2 SLP011 T01330056

More Conditions Fewer Conditions

Pressure 29.57 in
Visibility 10.0 miles
Clouds Few 7500 ft
Overcast 9500 ft
Dew Point 38 °F
Humidity 58%
Rainfall 0.00 in
Snow Depth Not available.
UV 0 out of 12
Pollen .70 out of 12
Air Quality Not available.
Flu Activity Sporadic
METAR KPSF 252154Z AUTO 19003KT 10SM FEW075 OVC095 13/06 A2959 RMK AO2 SLP011 T01330056

More Conditions Fewer Conditions

10-Day Weather Forecast

Almanac

Astronomy

Oct. 25, 2014 Rise Set
Actual Time 7:17 AM EDT 5:55 PM EDT
Civil Twilight 6:48 AM EDT 6:24 PM EDT
Nautical Twilight 6:16 AM EDT 6:57 PM EDT
Astronomical Twilight 5:43 AM EDT 7:29 PM EDT
Moon 8:55 AM EDT 7:15 PM EDT
Length of Visible Light 11h 35m
Length of Day
10h 38m
Tomorrow will be 2m 38s shorter.
Waxing Crescent, 4% of the Moon is Illuminated
Today
Waxing Crescent
Oct 30
First Quarter
Nov 6
Full
Nov 14
Last Quarter
Nov 22
New

Today's Extremes

State Highs State Lows

Community

WunderPhotos

Upload Photos

1,765,015 photos uploaded!

Nearby

Air Quality

  Air Quality AQ Index Pollutant
Saturday Good
PM2.5
Saturday Good
OZONE
Sunday Good
PM2.5
Sunday Good
OZONE

Snow Depth

Station Depth Elevation
No new snow has been reported.

Earthquake Activity

City Distance Mag. Time & Date
No recent earthquake activity has been reported nearby.
Minimum magnitude displayed is 2.5.

Coastal Water Temperatures

Place Temperature
No Stations Reporting

Nearby Weather Stations